createdAt,value
2017-08-04T00:01:28.096Z,95.30
2017-08-04T00:03:54.366Z,95.50
2017-08-04T00:06:21.727Z,95.50
2017-08-04T00:08:48.021Z,95.60
2017-08-04T00:11:14.306Z,96.10
2017-08-04T00:13:41.334Z,95.90
2017-08-04T00:16:07.618Z,95.90
2017-08-04T00:18:33.890Z,96.30
2017-08-04T00:21:00.154Z,96.20
2017-08-04T00:23:26.430Z,96.50
2017-08-04T00:25:52.702Z,96.30
2017-08-04T00:28:18.979Z,96.50
2017-08-04T00:30:45.262Z,96.80
2017-08-04T00:33:11.514Z,97.00
2017-08-04T00:35:37.794Z,97.10
2017-08-04T00:38:04.054Z,97.80
2017-08-04T00:40:30.346Z,97.60
2017-08-04T00:42:56.643Z,97.80
2017-08-04T00:45:22.938Z,97.90
2017-08-04T00:47:49.187Z,98.30
2017-08-04T00:50:16.468Z,98.10
2017-08-04T00:52:43.770Z,98.00
2017-08-04T00:55:10.015Z,97.70
2017-08-04T00:57:36.287Z,97.90
2017-08-04T01:00:02.634Z,97.80
2017-08-04T01:02:28.891Z,98.00
2017-08-04T01:04:55.175Z,98.30
2017-08-04T01:07:21.447Z,98.40
2017-08-04T01:09:47.720Z,98.00
2017-08-04T01:12:14.018Z,97.70
2017-08-04T01:14:41.035Z,98.10
2017-08-04T01:17:07.290Z,98.10
2017-08-04T01:19:33.570Z,98.40
2017-08-04T01:21:59.831Z,98.60
2017-08-04T01:24:26.087Z,98.60
2017-08-04T01:26:52.395Z,98.90
2017-08-04T01:29:18.671Z,99.20
2017-08-04T01:31:44.942Z,98.70
2017-08-04T01:34:12.003Z,99.20
2017-08-04T01:36:38.288Z,99.10
2017-08-04T01:39:04.550Z,99.10
2017-08-04T01:41:30.890Z,99.50
2017-08-04T01:43:57.158Z,99.40
2017-08-04T01:46:24.466Z,99.70
2017-08-04T01:48:51.534Z,99.60
2017-08-04T01:51:17.798Z,99.60
2017-08-04T01:53:44.082Z,99.90
2017-08-04T01:56:10.407Z,99.90
2017-08-04T01:58:36.690Z,99.90
2017-08-04T02:01:02.978Z,99.90
2017-08-04T02:03:29.280Z,99.90
2017-08-04T02:05:55.579Z,99.90
2017-08-04T02:08:22.867Z,99.90
2017-08-04T02:10:49.165Z,99.90
2017-08-04T02:13:15.479Z,99.90
2017-08-04T02:15:42.515Z,99.90
2017-08-04T02:18:08.827Z,99.90
2017-08-04T02:20:35.846Z,99.90
2017-08-04T02:23:02.134Z,99.90
2017-08-04T02:25:29.178Z,99.90
2017-08-04T02:27:55.451Z,99.90
2017-08-04T02:30:21.698Z,99.90
2017-08-04T02:32:48.778Z,99.90
2017-08-04T02:35:15.018Z,99.90
2017-08-04T02:37:41.278Z,99.90
2017-08-04T02:40:07.582Z,99.90
2017-08-04T02:42:33.870Z,99.90
2017-08-04T02:45:00.131Z,99.90
2017-08-04T02:47:26.422Z,99.90
2017-08-04T02:49:52.682Z,99.90
2017-08-04T02:52:18.943Z,99.90
2017-08-04T02:54:45.974Z,99.90
2017-08-04T02:57:12.218Z,99.90
2017-08-04T02:59:38.510Z,99.90
2017-08-04T03:02:05.534Z,99.90
2017-08-04T03:04:31.790Z,99.90
2017-08-04T03:06:58.050Z,99.90
2017-08-04T03:09:25.113Z,99.90
2017-08-04T03:11:52.378Z,99.90
2017-08-04T03:14:18.630Z,99.90
2017-08-04T03:16:45.654Z,99.90
2017-08-04T03:19:11.909Z,99.90
2017-08-04T03:21:38.909Z,99.90
2017-08-04T03:24:07.038Z,99.90
2017-08-04T03:26:33.298Z,99.90
2017-08-04T03:29:00.290Z,99.90
2017-08-04T03:31:27.399Z,99.90
2017-08-04T03:33:53.674Z,99.90
2017-08-04T03:36:19.919Z,99.90
2017-08-04T03:38:46.218Z,99.90
2017-08-04T03:41:12.477Z,99.90
2017-08-04T03:43:38.759Z,99.90
2017-08-04T03:46:05.052Z,99.90
2017-08-04T03:48:32.042Z,99.90
2017-08-04T03:50:58.296Z,99.90
2017-08-04T03:53:24.613Z,99.90
2017-08-04T03:55:51.644Z,99.90
2017-08-04T03:58:18.658Z,99.90
2017-08-04T04:00:45.314Z,99.90
2017-08-04T04:03:11.578Z,99.90
2017-08-04T04:05:37.839Z,99.90
2017-08-04T04:08:04.154Z,99.90
2017-08-04T04:10:30.438Z,99.90
2017-08-04T04:12:56.703Z,99.90
2017-08-04T04:15:23.018Z,99.90
2017-08-04T04:17:49.271Z,99.90
2017-08-04T04:20:15.598Z,99.90
2017-08-04T04:22:41.898Z,99.90
2017-08-04T04:25:08.162Z,99.90
2017-08-04T04:27:34.422Z,99.90
2017-08-04T04:30:01.458Z,99.90
2017-08-04T04:32:27.702Z,99.90
2017-08-04T04:34:53.997Z,99.90
2017-08-04T04:37:20.299Z,99.90
2017-08-04T04:39:46.551Z,99.90
2017-08-04T04:42:12.805Z,99.90
2017-08-04T04:44:39.122Z,99.90
2017-08-04T04:47:05.376Z,99.90
2017-08-04T04:49:31.658Z,99.90
2017-08-04T04:51:58.671Z,99.90
2017-08-04T04:54:24.929Z,99.90
2017-08-04T04:56:51.929Z,99.90
2017-08-04T04:59:18.262Z,99.90
2017-08-04T05:01:44.514Z,99.90
2017-08-04T05:04:10.770Z,99.90
2017-08-04T05:06:37.827Z,99.90
2017-08-04T05:09:04.127Z,99.90
2017-08-04T05:11:30.393Z,99.90
2017-08-04T05:13:56.714Z,99.90
2017-08-04T05:16:24.058Z,99.90
2017-08-04T05:18:50.322Z,99.90
2017-08-04T05:21:16.622Z,99.90
2017-08-04T05:23:42.858Z,99.90
2017-08-04T05:26:09.842Z,99.90
2017-08-04T05:28:36.134Z,99.90
2017-08-04T05:31:02.405Z,99.90
2017-08-04T05:33:30.479Z,99.90
2017-08-04T05:35:56.785Z,99.90
2017-08-04T05:38:23.938Z,99.10
2017-08-04T05:40:50.198Z,99.00
2017-08-04T05:43:17.254Z,99.90
2017-08-04T05:45:44.314Z,99.90
2017-08-04T05:48:10.568Z,99.90
2017-08-04T05:50:36.865Z,98.70
2017-08-04T05:53:03.117Z,99.40
2017-08-04T05:55:30.107Z,96.00
2017-08-04T05:57:56.403Z,96.10
2017-08-04T06:00:22.667Z,97.20
2017-08-04T06:02:48.939Z,95.00
2017-08-04T06:05:15.328Z,94.40
2017-08-04T06:07:41.595Z,94.50
2017-08-04T06:10:07.858Z,94.50
2017-08-04T06:12:34.177Z,94.60
2017-08-04T06:15:00.439Z,94.10
2017-08-04T06:17:26.698Z,94.00
2017-08-04T06:19:52.994Z,94.40
2017-08-04T06:22:19.330Z,94.10
2017-08-04T06:24:45.574Z,95.50
2017-08-04T06:27:11.902Z,93.80
2017-08-04T06:29:38.194Z,92.50
2017-08-04T06:32:04.446Z,91.80
2017-08-04T06:34:30.779Z,91.00
2017-08-04T06:36:57.796Z,91.00
2017-08-04T06:39:24.075Z,91.00
2017-08-04T06:41:50.435Z,93.10
2017-08-04T06:44:17.455Z,90.50
2017-08-04T06:46:43.761Z,90.50
2017-08-04T06:49:23.149Z,88.60
2017-08-04T06:52:01.679Z,88.60
2017-08-04T06:54:41.032Z,86.50
2017-08-04T06:57:08.010Z,87.90
2017-08-04T06:59:34.294Z,87.90
2017-08-04T07:02:00.566Z,88.40
2017-08-04T07:04:26.850Z,87.60
2017-08-04T07:06:53.121Z,88.10
2017-08-04T07:09:19.407Z,90.20
2017-08-04T07:11:46.425Z,86.10
2017-08-04T07:14:13.441Z,84.80
2017-08-04T07:16:39.714Z,84.10
2017-08-04T07:19:05.967Z,83.60
2017-08-04T07:21:32.262Z,83.10
2017-08-04T07:23:58.621Z,82.20
2017-08-04T07:26:24.894Z,83.70
2017-08-04T07:28:51.234Z,82.40
2017-08-04T07:31:17.510Z,85.10
2017-08-04T07:33:43.774Z,85.40
2017-08-04T07:36:10.790Z,82.80
2017-08-04T07:38:37.066Z,81.80
2017-08-04T07:41:03.338Z,81.40
2017-08-04T07:43:30.358Z,79.70
2017-08-04T07:45:56.634Z,79.70
2017-08-04T07:48:22.918Z,79.50
2017-08-04T07:50:49.226Z,79.00
2017-08-04T07:53:15.510Z,81.90
2017-08-04T07:55:41.770Z,74.00
2017-08-04T07:58:08.054Z,72.80
2017-08-04T08:00:34.329Z,73.50
2017-08-04T08:03:00.582Z,70.70
2017-08-04T08:05:26.855Z,71.10
2017-08-04T08:07:53.158Z,68.20
2017-08-04T08:10:19.426Z,68.50
2017-08-04T08:12:47.726Z,67.30
2017-08-04T08:15:14.017Z,72.00
2017-08-04T08:17:41.013Z,67.00
2017-08-04T08:20:07.294Z,67.00
2017-08-04T08:22:33.574Z,70.00
2017-08-04T08:25:00.558Z,66.50
2017-08-04T08:27:26.826Z,66.50
2017-08-04T08:29:53.108Z,69.00
2017-08-04T08:32:19.378Z,65.70
2017-08-04T08:34:46.442Z,66.70
2017-08-04T08:37:12.747Z,66.50
2017-08-04T08:39:39.000Z,62.90
2017-08-04T08:42:05.286Z,65.20
2017-08-04T08:44:31.569Z,59.70
2017-08-04T08:46:57.818Z,56.70
2017-08-04T08:49:24.130Z,56.30
2017-08-04T08:51:50.403Z,53.90
2017-08-04T08:54:16.698Z,55.50
2017-08-04T08:56:42.982Z,55.40
2017-08-04T08:59:10.011Z,55.40
2017-08-04T09:01:36.255Z,55.50
2017-08-04T09:04:02.538Z,58.00
2017-08-04T09:06:28.822Z,57.60
2017-08-04T09:08:55.088Z,58.90
2017-08-04T09:11:21.346Z,59.70
2017-08-04T09:13:47.614Z,59.10
2017-08-04T09:16:14.609Z,59.00
2017-08-04T09:18:41.618Z,62.20
2017-08-04T09:21:08.906Z,62.10
2017-08-04T09:23:35.926Z,55.20
2017-08-04T09:26:02.207Z,55.10
2017-08-04T09:28:28.478Z,53.30
2017-08-04T09:30:55.853Z,53.30
2017-08-04T09:33:23.211Z,50.70
2017-08-04T09:35:49.528Z,49.60
2017-08-04T09:38:15.775Z,48.30
2017-08-04T09:40:42.054Z,48.70
2017-08-04T09:43:08.330Z,52.50
2017-08-04T09:45:34.578Z,49.80
2017-08-04T09:48:01.674Z,51.70
2017-08-04T09:50:27.983Z,51.70
2017-08-04T09:52:54.254Z,53.40
2017-08-04T09:55:20.526Z,53.50
2017-08-04T09:57:46.803Z,54.10
2017-08-04T10:00:13.938Z,56.30
2017-08-04T10:02:40.230Z,59.60
2017-08-04T10:05:06.519Z,55.80
2017-08-04T10:07:32.772Z,57.00
2017-08-04T10:09:59.037Z,56.80
2017-08-04T10:12:25.310Z,57.10
2017-08-04T10:14:51.566Z,60.20
2017-08-04T10:17:17.850Z,58.30
2017-08-04T10:19:44.118Z,56.60
2017-08-04T10:22:10.383Z,56.40
2017-08-04T10:24:36.675Z,58.30
2017-08-04T10:27:02.950Z,58.50
2017-08-04T10:29:29.262Z,58.50
2017-08-04T10:31:56.278Z,57.80
2017-08-04T10:34:22.542Z,57.80
2017-08-04T10:36:50.518Z,58.30
2017-08-04T10:39:17.798Z,58.30
2017-08-04T10:41:44.090Z,57.40
2017-08-04T10:44:10.342Z,58.00
2017-08-04T10:46:36.618Z,58.30
2017-08-04T10:49:02.913Z,57.40
2017-08-04T10:51:29.210Z,57.80
2017-08-04T10:53:55.495Z,56.80
2017-08-04T10:56:21.770Z,56.00
2017-08-04T10:58:48.018Z,56.40
2017-08-04T11:01:15.033Z,56.40
2017-08-04T11:03:41.327Z,56.40
2017-08-04T11:06:07.591Z,55.60
2017-08-04T11:08:33.862Z,55.60
2017-08-04T11:11:00.139Z,58.40
2017-08-04T11:13:26.393Z,58.20
2017-08-04T11:15:52.662Z,55.70
2017-08-04T11:18:18.958Z,55.70
2017-08-04T11:20:45.942Z,57.10
2017-08-04T11:23:12.222Z,56.60
2017-08-04T11:25:39.590Z,56.90
2017-08-04T11:28:05.838Z,59.10
2017-08-04T11:30:34.874Z,56.00
2017-08-04T11:33:01.252Z,56.00
2017-08-04T11:35:28.246Z,58.40
2017-08-04T11:37:55.313Z,57.10
2017-08-04T11:40:21.618Z,57.10
2017-08-04T11:42:48.615Z,56.90
2017-08-04T11:45:14.911Z,56.90
2017-08-04T11:47:41.182Z,54.90
2017-08-04T11:50:08.182Z,55.30
2017-08-04T11:52:35.228Z,54.90
2017-08-04T11:55:01.506Z,54.80
2017-08-04T11:57:27.758Z,49.30
2017-08-04T11:59:54.791Z,50.30
2017-08-04T12:02:21.066Z,50.40
2017-08-04T12:04:47.318Z,48.50
2017-08-04T12:07:14.330Z,49.60
2017-08-04T12:09:41.650Z,49.60
2017-08-04T12:12:07.919Z,48.80
2017-08-04T12:14:34.183Z,50.70
2017-08-04T12:17:00.466Z,48.10
2017-08-04T12:19:26.724Z,48.50
2017-08-04T12:21:53.732Z,48.80
2017-08-04T12:24:20.001Z,48.80
2017-08-04T12:26:47.006Z,49.80
2017-08-04T12:29:15.011Z,48.40
2017-08-04T12:31:41.302Z,48.40
2017-08-04T12:34:08.306Z,46.00
2017-08-04T12:36:35.322Z,47.50
2017-08-04T12:39:01.598Z,47.40
2017-08-04T12:41:27.871Z,44.90
2017-08-04T12:43:54.178Z,45.10
2017-08-04T12:46:20.470Z,42.50
2017-08-04T12:48:46.761Z,45.90
2017-08-04T12:51:13.071Z,46.60
2017-08-04T12:53:39.378Z,41.10
2017-08-04T12:56:05.634Z,39.60
2017-08-04T12:58:31.922Z,38.00
2017-08-04T13:00:58.218Z,34.60
2017-08-04T13:03:24.470Z,34.60
2017-08-04T13:05:51.774Z,30.20
2017-08-04T13:08:18.046Z,25.80
2017-08-04T13:10:44.311Z,26.90
2017-08-04T13:13:10.582Z,26.50
2017-08-04T13:15:36.862Z,24.00
2017-08-04T13:18:03.142Z,26.10
2017-08-04T13:20:29.414Z,23.10
2017-08-04T13:22:55.682Z,23.30
2017-08-04T13:25:21.942Z,23.90
2017-08-04T13:27:48.974Z,22.00
2017-08-04T13:30:16.003Z,21.10
2017-08-04T13:32:42.262Z,20.90
2017-08-04T13:35:08.549Z,21.20
2017-08-04T13:37:34.842Z,20.50
2017-08-04T13:40:01.099Z,20.90
2017-08-04T13:42:27.390Z,20.40
2017-08-04T13:44:54.399Z,19.30
2017-08-04T13:47:20.638Z,19.20
2017-08-04T13:49:46.897Z,20.60
2017-08-04T13:52:13.179Z,19.70
2017-08-04T13:54:39.446Z,20.60
2017-08-04T13:57:06.471Z,24.40
2017-08-04T13:59:32.747Z,24.30
2017-08-04T14:01:59.034Z,24.30
2017-08-04T14:04:25.343Z,25.60
2017-08-04T14:06:52.355Z,27.40
2017-08-04T14:09:18.607Z,27.30
2017-08-04T14:11:44.922Z,28.00
2017-08-04T14:14:11.210Z,25.80
2017-08-04T14:16:37.466Z,23.70
2017-08-04T14:19:03.746Z,23.90
2017-08-04T14:21:30.034Z,22.10
2017-08-04T14:23:56.287Z,22.00
2017-08-04T14:26:22.570Z,22.10
2017-08-04T14:28:48.862Z,24.40
2017-08-04T14:31:16.118Z,22.90
2017-08-04T14:33:43.130Z,24.50
2017-08-04T14:36:09.410Z,24.50
2017-08-04T14:38:35.650Z,21.50
2017-08-04T14:41:01.918Z,21.60
2017-08-04T14:43:28.194Z,23.00
2017-08-04T14:45:54.458Z,26.80
2017-08-04T14:48:20.722Z,25.60
2017-08-04T14:50:46.987Z,25.50
2017-08-04T14:53:13.255Z,26.30
2017-08-04T14:55:39.550Z,30.00
2017-08-04T14:58:06.825Z,30.30
2017-08-04T15:00:33.077Z,34.00
2017-08-04T15:02:59.358Z,32.40
2017-08-04T15:05:25.642Z,31.90
2017-08-04T15:07:51.914Z,36.00
2017-08-04T15:10:18.227Z,36.90
2017-08-04T15:12:44.522Z,37.00
2017-08-04T15:15:10.798Z,36.60
2017-08-04T15:17:37.822Z,37.00
2017-08-04T15:20:04.139Z,37.00
2017-08-04T15:22:30.450Z,40.20
2017-08-04T15:24:56.778Z,39.80
2017-08-04T15:27:23.831Z,41.50
2017-08-04T15:29:50.102Z,41.30
2017-08-04T15:32:17.183Z,41.00
2017-08-04T15:34:43.508Z,40.50
2017-08-04T15:37:09.802Z,42.20
2017-08-04T15:39:36.136Z,38.50
2017-08-04T15:42:02.462Z,39.80
2017-08-04T15:44:28.734Z,39.40
2017-08-04T15:46:55.066Z,36.90
2017-08-04T15:49:21.458Z,37.30
2017-08-04T15:51:47.816Z,37.30
2017-08-04T15:54:14.223Z,37.60
2017-08-04T15:56:40.680Z,37.70
2017-08-04T15:59:07.047Z,42.90
2017-08-04T16:01:33.456Z,40.00
2017-08-04T16:03:59.863Z,38.10
2017-08-04T16:06:26.275Z,38.00
2017-08-04T16:08:52.687Z,39.20
2017-08-04T16:11:19.075Z,43.30
2017-08-04T16:13:45.411Z,39.40
2017-08-04T16:16:11.819Z,41.70
2017-08-04T16:18:39.199Z,39.60
2017-08-04T16:21:05.607Z,40.00
2017-08-04T16:23:31.983Z,40.30
2017-08-04T16:25:58.448Z,41.10
2017-08-04T16:28:24.815Z,42.50
2017-08-04T16:32:44.282Z,44.10
2017-08-04T16:35:10.565Z,45.60
2017-08-04T16:37:36.871Z,47.60
2017-08-04T16:40:03.187Z,43.70
2017-08-04T16:42:29.453Z,43.30
2017-08-04T16:44:55.770Z,43.90
2017-08-04T16:47:22.054Z,43.90
2017-08-04T16:49:48.312Z,44.40
2017-08-04T16:52:14.606Z,44.80
2017-08-04T16:54:41.711Z,45.20
2017-08-04T16:57:08.032Z,45.10
2017-08-04T16:59:35.088Z,45.70
2017-08-04T17:02:02.155Z,47.50
2017-08-04T17:04:28.451Z,46.80
2017-08-04T17:06:55.838Z,47.80
2017-08-04T17:09:22.155Z,46.60
2017-08-04T17:11:48.454Z,46.90
2017-08-04T17:14:14.759Z,46.50
2017-08-04T17:16:42.154Z,46.40
2017-08-04T17:19:09.183Z,46.50
2017-08-04T17:21:36.471Z,46.90
2017-08-04T17:24:02.867Z,46.80
2017-08-04T17:26:29.151Z,46.60
2017-08-04T17:28:55.467Z,46.80
2017-08-04T17:31:21.772Z,47.10
2017-08-04T17:33:48.802Z,47.90
2017-08-04T17:36:15.127Z,48.00
2017-08-04T17:38:42.195Z,47.30
2017-08-04T17:41:09.793Z,47.30
2017-08-04T17:43:36.307Z,47.30
2017-08-04T17:46:03.507Z,50.30
2017-08-04T17:48:29.948Z,50.30
2017-08-04T17:50:56.399Z,49.00
2017-08-04T17:53:23.900Z,48.20
2017-08-04T17:55:51.385Z,48.50
2017-08-04T17:58:30.133Z,48.40
2017-08-04T18:00:56.511Z,49.10
2017-08-04T18:03:22.935Z,52.70
2017-08-04T18:05:50.319Z,49.00
2017-08-04T18:08:16.672Z,49.10
2017-08-04T18:10:43.095Z,49.20
2017-08-04T18:13:09.523Z,49.20
2017-08-04T18:15:36.968Z,49.50
2017-08-04T18:18:03.388Z,50.10
2017-08-04T18:20:29.879Z,52.50
2017-08-04T18:22:56.259Z,54.30
2017-08-04T18:25:23.399Z,50.90
2017-08-04T18:27:49.768Z,50.90
2017-08-04T18:30:16.188Z,50.60
2017-08-04T18:32:42.618Z,53.10
2017-08-04T18:35:09.010Z,51.60
2017-08-04T18:37:36.492Z,54.30
2017-08-04T18:40:02.907Z,52.00
2017-08-04T18:42:29.292Z,53.90
2017-08-04T18:44:55.640Z,52.30
2017-08-04T18:47:22.043Z,52.10
2017-08-04T18:49:48.464Z,53.00
2017-08-04T18:52:14.858Z,52.20
2017-08-04T18:54:41.276Z,52.50
2017-08-04T18:57:07.704Z,52.70
2017-08-04T18:59:34.120Z,55.30
2017-08-04T19:02:00.552Z,57.20
2017-08-04T19:04:26.944Z,53.80
2017-08-04T19:06:53.435Z,54.30
2017-08-04T19:09:19.878Z,57.10
2017-08-04T19:11:46.335Z,56.30
2017-08-04T19:14:12.731Z,54.80
2017-08-04T19:16:39.228Z,55.30
2017-08-04T19:19:05.644Z,58.40
2017-08-04T19:21:32.077Z,56.80
2017-08-04T19:23:58.528Z,58.40
2017-08-04T19:26:24.943Z,59.60
2017-08-04T19:28:51.345Z,58.20
2017-08-04T19:31:18.476Z,59.90
2017-08-04T19:33:45.197Z,59.90
2017-08-04T19:36:11.558Z,59.90
2017-08-04T19:38:38.013Z,60.90
2017-08-04T19:41:04.499Z,59.00
2017-08-04T19:43:31.406Z,58.00
2017-08-04T19:45:58.089Z,57.80
2017-08-04T19:48:24.662Z,58.80
2017-08-04T19:50:51.580Z,57.50
2017-08-04T19:53:18.639Z,57.40
2017-08-04T19:55:46.141Z,57.00
2017-08-04T19:58:13.435Z,60.80
2017-08-04T20:00:41.147Z,58.00
2017-08-04T20:03:08.739Z,58.60
2017-08-04T20:05:36.181Z,57.50
2017-08-04T20:08:05.665Z,65.00
2017-08-04T20:10:33.380Z,64.90
2017-08-04T20:13:01.211Z,60.20
2017-08-04T20:15:28.819Z,63.80
2017-08-04T20:17:56.694Z,63.20
2017-08-04T20:20:24.471Z,63.70
2017-08-04T20:22:52.827Z,67.00
2017-08-04T20:25:21.193Z,65.00
2017-08-04T20:27:48.866Z,65.00
2017-08-04T20:30:16.578Z,64.70
2017-08-04T20:32:44.097Z,65.60
2017-08-04T20:35:11.390Z,65.60
2017-08-04T20:37:38.613Z,67.00
2017-08-04T20:40:05.648Z,66.30
2017-08-04T20:42:32.600Z,66.40
2017-08-04T20:44:59.685Z,68.30
2017-08-04T20:47:26.548Z,67.90
2017-08-04T20:49:53.334Z,66.30
2017-08-04T20:52:20.267Z,69.50
2017-08-04T20:54:47.417Z,67.80
2017-08-04T20:57:14.391Z,67.30
2017-08-04T20:59:41.405Z,69.60
2017-08-04T21:02:08.048Z,69.60
2017-08-04T21:04:34.914Z,69.50
2017-08-04T21:07:02.016Z,69.50
2017-08-04T21:09:28.820Z,71.00
2017-08-04T21:11:55.717Z,72.40
2017-08-04T21:14:23.405Z,73.30
2017-08-04T21:16:51.273Z,73.30
2017-08-04T21:19:17.807Z,74.10
2017-08-04T21:21:45.037Z,74.40
2017-08-04T21:24:12.410Z,75.20
2017-08-04T21:26:39.642Z,75.10
2017-08-04T21:29:06.113Z,75.00
2017-08-04T21:31:33.271Z,75.70
2017-08-04T21:33:59.814Z,75.70
2017-08-04T21:36:27.329Z,77.30
2017-08-04T21:38:54.540Z,77.20
2017-08-04T21:41:20.989Z,77.00
2017-08-04T21:43:47.398Z,77.10
2017-08-04T21:46:13.847Z,79.00
2017-08-04T21:48:40.294Z,80.10
2017-08-04T21:51:06.727Z,80.40
2017-08-04T21:53:33.183Z,81.10
2017-08-04T21:55:59.589Z,82.20
2017-08-04T21:58:25.975Z,81.60
2017-08-04T22:00:52.395Z,83.00
2017-08-04T22:03:18.857Z,82.90
2017-08-04T22:05:45.331Z,83.80
2017-08-04T22:08:11.717Z,82.90
2017-08-04T22:10:38.135Z,83.90
2017-08-04T22:13:05.547Z,84.50
2017-08-04T22:15:31.986Z,85.50
2017-08-04T22:17:58.423Z,85.60
2017-08-04T22:20:24.797Z,86.20
2017-08-04T22:22:51.995Z,85.80
2017-08-04T22:25:19.163Z,86.40
2017-08-04T22:27:45.569Z,86.40
2017-08-04T22:30:12.719Z,87.70
2017-08-04T22:32:39.137Z,87.60
2017-08-04T22:35:11.672Z,88.10
2017-08-04T22:37:38.190Z,88.40
2017-08-04T22:40:04.772Z,88.40
2017-08-04T22:42:31.176Z,89.60
2017-08-04T22:44:57.606Z,90.40
2017-08-04T22:47:24.191Z,89.90
2017-08-04T22:49:50.651Z,90.30
2017-08-04T22:52:19.393Z,90.00
2017-08-04T22:54:45.845Z,90.40
2017-08-04T22:57:12.224Z,90.40
2017-08-04T22:59:38.654Z,90.20
2017-08-04T23:02:05.107Z,90.30
2017-08-04T23:04:31.488Z,91.00
2017-08-04T23:06:58.969Z,91.20
2017-08-04T23:09:25.451Z,91.70
2017-08-04T23:11:51.838Z,91.50
2017-08-04T23:14:18.252Z,91.70
2017-08-04T23:16:44.684Z,92.40
2017-08-04T23:19:11.494Z,91.90
2017-08-04T23:21:38.602Z,92.30
2017-08-04T23:24:06.440Z,92.40
2017-08-04T23:26:36.698Z,92.20
2017-08-04T23:29:03.148Z,92.30
2017-08-04T23:31:29.570Z,92.50
2017-08-04T23:33:56.011Z,92.40
2017-08-04T23:36:22.460Z,92.70
2017-08-04T23:38:51.081Z,93.00
2017-08-04T23:41:17.587Z,93.30
2017-08-04T23:43:44.057Z,93.50
2017-08-04T23:46:10.523Z,93.80
2017-08-04T23:48:36.963Z,93.70
2017-08-04T23:51:03.387Z,93.90
2017-08-04T23:53:29.811Z,93.90
2017-08-04T23:55:56.246Z,93.80
2017-08-04T23:58:23.272Z,93.80
